sensor_id;sensor_type;location;lat;lon;timestamp;pressure;altitude;pressure_sealevel;temperature;humidity
68873;BME280;55907;50.806;12.882;2023-02-21T00:01:12;974.0;;;9.1;72.6
68873;BME280;55907;50.806;12.882;2023-02-21T00:04:10;974.0;;;9.0;73.5
68873;BME280;55907;50.806;12.882;2023-02-21T00:07:12;974.1;;;9.0;73.4
68873;BME280;55907;50.806;12.882;2023-02-21T00:10:15;974.2;;;9.0;73.8
68873;BME280;55907;50.806;12.882;2023-02-21T00:13:15;974.2;;;8.9;74.3
68873;BME280;55907;50.806;12.882;2023-02-21T00:16:17;974.2;;;8.9;74.5
68873;BME280;55907;50.806;12.882;2023-02-21T00:19:18;974.3;;;9.0;74.1
68873;BME280;55907;50.806;12.882;2023-02-21T00:22:19;974.2;;;8.9;74.4
68873;BME280;55907;50.806;12.882;2023-02-21T00:25:21;974.3;;;8.9;74.3
68873;BME280;55907;50.806;12.882;2023-02-21T00:28:32;974.3;;;8.9;74.4
68873;BME280;55907;50.806;12.882;2023-02-21T00:31:24;974.2;;;8.9;74.5
68873;BME280;55907;50.806;12.882;2023-02-21T00:34:25;974.3;;;8.9;74.4
68873;BME280;55907;50.806;12.882;2023-02-21T00:37:27;974.2;;;8.9;74.6
68873;BME280;55907;50.806;12.882;2023-02-21T00:40:28;974.2;;;8.8;74.7
68873;BME280;55907;50.806;12.882;2023-02-21T00:43:32;974.2;;;8.9;74.1
68873;BME280;55907;50.806;12.882;2023-02-21T00:46:32;974.1;;;8.9;74.1
68873;BME280;55907;50.806;12.882;2023-02-21T00:49:33;974.0;;;8.9;73.9
68873;BME280;55907;50.806;12.882;2023-02-21T00:52:34;974.0;;;8.9;73.9
68873;BME280;55907;50.806;12.882;2023-02-21T00:55:36;974.0;;;8.9;73.8
68873;BME280;55907;50.806;12.882;2023-02-21T00:58:37;973.9;;;9.0;73.6
68873;BME280;55907;50.806;12.882;2023-02-21T01:01:39;973.9;;;9.1;73.2
68873;BME280;55907;50.806;12.882;2023-02-21T01:04:40;973.9;;;9.0;73.5
68873;BME280;55907;50.806;12.882;2023-02-21T01:07:42;973.9;;;9.0;73.5
68873;BME280;55907;50.806;12.882;2023-02-21T01:10:43;973.8;;;9.0;73.0
68873;BME280;55907;50.806;12.882;2023-02-21T01:13:45;973.9;;;9.0;73.4
68873;BME280;55907;50.806;12.882;2023-02-21T01:16:47;973.9;;;9.0;73.7
68873;BME280;55907;50.806;12.882;2023-02-21T01:19:48;973.9;;;8.9;73.9
68873;BME280;55907;50.806;12.882;2023-02-21T01:22:49;973.8;;;8.9;73.8
68873;BME280;55907;50.806;12.882;2023-02-21T01:25:51;973.9;;;8.9;73.8
68873;BME280;55907;50.806;12.882;2023-02-21T01:26:07;unavailable;;;unavailable;unavailable
68873;BME280;55907;50.806;12.882;2023-02-21T01:26:10;973.9;;;8.9;73.8
68873;BME280;55907;50.806;12.882;2023-02-21T01:29:22;unavailable;;;unavailable;unavailable
68873;BME280;55907;50.806;12.882;2023-02-21T01:29:36;973.9;;;9.2;72.9
68873;BME280;55907;50.806;12.882;2023-02-21T01:31:54;973.9;;;9.2;72.9
68873;BME280;55907;50.806;12.882;2023-02-21T01:33:17;unavailable;;;unavailable;unavailable
68873;BME280;55907;50.806;12.882;2023-02-21T01:33:18;973.8;;;9.3;72.6
68873;BME280;55907;50.806;12.882;2023-02-21T01:34:56;973.8;;;9.3;72.2
68873;BME280;55907;50.806;12.882;2023-02-21T01:35:39;unavailable;;;unavailable;unavailable
68873;BME280;55907;50.806;12.882;2023-02-21T01:35:42;973.8;;;9.4;71.9
68873;BME280;55907;50.806;12.882;2023-02-21T01:37:01;unavailable;;;unavailable;unavailable
68873;BME280;55907;50.806;12.882;2023-02-21T01:37:05;973.8;;;9.4;71.8
68873;BME280;55907;50.806;12.882;2023-02-21T01:37:57;973.8;;;9.4;71.9
68873;BME280;55907;50.806;12.882;2023-02-21T01:40:58;973.9;;;9.4;71.8
68873;BME280;55907;50.806;12.882;2023-02-21T01:44:02;973.8;;;9.5;71.5
68873;BME280;55907;50.806;12.882;2023-02-21T01:50:08;973.7;;;9.4;72.1
68873;BME280;55907;50.806;12.882;2023-02-21T01:53:09;973.7;;;9.3;72.5
68873;BME280;55907;50.806;12.882;2023-02-21T01:56:08;973.8;;;9.2;73.0
68873;BME280;55907;50.806;12.882;2023-02-21T01:59:09;973.7;;;9.2;73.3
68873;BME280;55907;50.806;12.882;2023-02-21T02:02:16;973.6;;;9.2;73.3
68873;BME280;55907;50.806;12.882;2023-02-21T02:05:11;973.5;;;9.2;73.3
68873;BME280;55907;50.806;12.882;2023-02-21T02:08:13;973.5;;;9.1;73.4
68873;BME280;55907;50.806;12.882;2023-02-21T02:11:19;973.6;;;9.2;73.4
68873;BME280;55907;50.806;12.882;2023-02-21T02:14:29;973.6;;;9.2;73.5
68873;BME280;55907;50.806;12.882;2023-02-21T02:17:23;973.6;;;9.3;73.2
68873;BME280;55907;50.806;12.882;2023-02-21T02:20:34;973.5;;;9.3;73.1
68873;BME280;55907;50.806;12.882;2023-02-21T02:23:41;973.5;;;9.4;73.0
68873;BME280;55907;50.806;12.882;2023-02-21T02:25:02;unavailable;;;unavailable;unavailable
68873;BME280;55907;50.806;12.882;2023-02-21T02:29:40;973.5;;;9.6;72.6
68873;BME280;55907;50.806;12.882;2023-02-21T02:30:21;973.5;;;9.6;72.6
68873;BME280;55907;50.806;12.882;2023-02-21T02:31:23;973.5;;;9.5;72.3
68873;BME280;55907;50.806;12.882;2023-02-21T02:32:36;973.5;;;9.7;72.3
68873;BME280;55907;50.806;12.882;2023-02-21T02:35:28;973.5;;;9.6;72.1
68873;BME280;55907;50.806;12.882;2023-02-21T02:38:33;973.5;;;9.7;71.8
68873;BME280;55907;50.806;12.882;2023-02-21T02:41:40;973.5;;;9.7;71.6
68873;BME280;55907;50.806;12.882;2023-02-21T02:44:36;973.5;;;9.6;71.9
68873;BME280;55907;50.806;12.882;2023-02-21T02:47:36;973.5;;;9.5;72.1
68873;BME280;55907;50.806;12.882;2023-02-21T02:50:34;973.5;;;9.4;72.5
68873;BME280;55907;50.806;12.882;2023-02-21T02:53:35;973.4;;;9.4;72.5
68873;BME280;55907;50.806;12.882;2023-02-21T02:56:36;973.4;;;9.4;72.7
68873;BME280;55907;50.806;12.882;2023-02-21T02:59:40;973.4;;;9.4;72.9
68873;BME280;55907;50.806;12.882;2023-02-21T03:02:49;973.3;;;9.4;73.0
68873;BME280;55907;50.806;12.882;2023-02-21T03:05:52;973.3;;;9.3;73.3
68873;BME280;55907;50.806;12.882;2023-02-21T03:08:50;973.2;;;9.3;73.2
68873;BME280;55907;50.806;12.882;2023-02-21T03:11:50;973.2;;;9.3;73.3
68873;BME280;55907;50.806;12.882;2023-02-21T03:14:49;973.3;;;9.3;73.7
68873;BME280;55907;50.806;12.882;2023-02-21T03:17:52;973.2;;;9.3;74.0
68873;BME280;55907;50.806;12.882;2023-02-21T03:20:52;973.2;;;9.3;73.7
68873;BME280;55907;50.806;12.882;2023-02-21T03:23:51;973.1;;;9.3;74.1
68873;BME280;55907;50.806;12.882;2023-02-21T03:26:54;973.0;;;9.2;74.0
68873;BME280;55907;50.806;12.882;2023-02-21T03:29:55;973.0;;;9.2;74.4
68873;BME280;55907;50.806;12.882;2023-02-21T03:32:54;973.0;;;9.2;74.6
68873;BME280;55907;50.806;12.882;2023-02-21T03:35:57;973.0;;;9.2;74.8
68873;BME280;55907;50.806;12.882;2023-02-21T03:38:57;973.1;;;9.2;74.7
68873;BME280;55907;50.806;12.882;2023-02-21T03:41:59;973.1;;;9.2;74.7
68873;BME280;55907;50.806;12.882;2023-02-21T03:45:00;973.3;;;9.2;75.1
68873;BME280;55907;50.806;12.882;2023-02-21T03:48:02;973.3;;;9.2;75.0
68873;BME280;55907;50.806;12.882;2023-02-21T03:51:03;973.3;;;9.3;74.7
68873;BME280;55907;50.806;12.882;2023-02-21T03:54:05;973.3;;;9.3;74.8
68873;BME280;55907;50.806;12.882;2023-02-21T03:57:07;973.3;;;9.3;75.0
68873;BME280;55907;50.806;12.882;2023-02-21T04:00:10;973.4;;;9.3;75.1
68873;BME280;55907;50.806;12.882;2023-02-21T04:03:10;973.3;;;9.3;75.3
68873;BME280;55907;50.806;12.882;2023-02-21T04:06:11;973.3;;;9.3;75.1
68873;BME280;55907;50.806;12.882;2023-02-21T04:12:14;973.3;;;9.4;75.1
68873;BME280;55907;50.806;12.882;2023-02-21T04:15:16;973.2;;;9.3;75.3
68873;BME280;55907;50.806;12.882;2023-02-21T04:18:17;973.2;;;9.3;75.2
68873;BME280;55907;50.806;12.882;2023-02-21T04:21:18;973.1;;;9.4;75.0
68873;BME280;55907;50.806;12.882;2023-02-21T04:24:20;973.2;;;9.4;74.9
68873;BME280;55907;50.806;12.882;2023-02-21T04:27:22;973.2;;;9.4;75.0
68873;BME280;55907;50.806;12.882;2023-02-21T04:30:12;unavailable;;;unavailable;unavailable
68873;BME280;55907;50.806;12.882;2023-02-21T04:30:12;973.2;;;9.3;75.3
68873;BME280;55907;50.806;12.882;2023-02-21T04:30:23;973.2;;;9.4;75.2
68873;BME280;55907;50.806;12.882;2023-02-21T04:33:25;973.2;;;9.4;75.3
68873;BME280;55907;50.806;12.882;2023-02-21T04:36:26;973.3;;;9.4;75.3
68873;BME280;55907;50.806;12.882;2023-02-21T04:39:28;973.3;;;9.4;75.3
68873;BME280;55907;50.806;12.882;2023-02-21T04:42:29;973.2;;;9.4;75.5
68873;BME280;55907;50.806;12.882;2023-02-21T04:45:31;973.3;;;9.3;76.3
68873;BME280;55907;50.806;12.882;2023-02-21T04:48:32;973.3;;;9.3;76.6
68873;BME280;55907;50.806;12.882;2023-02-21T04:51:34;973.3;;;9.3;76.3
68873;BME280;55907;50.806;12.882;2023-02-21T04:54:35;973.3;;;9.3;76.2
68873;BME280;55907;50.806;12.882;2023-02-21T04:55:35;unavailable;;;unavailable;unavailable
68873;BME280;55907;50.806;12.882;2023-02-21T04:55:36;973.2;;;9.4;76.3
68873;BME280;55907;50.806;12.882;2023-02-21T04:57:37;973.2;;;9.4;76.1
68873;BME280;55907;50.806;12.882;2023-02-21T05:00:38;973.1;;;9.4;76.1
68873;BME280;55907;50.806;12.882;2023-02-21T05:02:41;973.1;;;9.5;75.8
68873;BME280;55907;50.806;12.882;2023-02-21T05:03:26;unavailable;;;unavailable;unavailable
68873;BME280;55907;50.806;12.882;2023-02-21T05:03:35;973.1;;;9.5;75.7
68873;BME280;55907;50.806;12.882;2023-02-21T05:03:40;973.1;;;9.5;75.7
68873;BME280;55907;50.806;12.882;2023-02-21T05:06:41;973.2;;;9.6;75.4
68873;BME280;55907;50.806;12.882;2023-02-21T05:07:01;unavailable;;;unavailable;unavailable
68873;BME280;55907;50.806;12.882;2023-02-21T05:07:05;973.2;;;9.6;75.4
68873;BME280;55907;50.806;12.882;2023-02-21T05:09:00;unavailable;;;unavailable;unavailable
68873;BME280;55907;50.806;12.882;2023-02-21T05:09:10;973.1;;;9.6;75.1
68873;BME280;55907;50.806;12.882;2023-02-21T05:11:42;unavailable;;;unavailable;unavailable
68873;BME280;55907;50.806;12.882;2023-02-21T05:11:49;973.1;;;9.8;75.1
68873;BME280;55907;50.806;12.882;2023-02-21T05:12:14;unavailable;;;unavailable;unavailable
68873;BME280;55907;50.806;12.882;2023-02-21T05:12:17;973.1;;;9.8;75.1
68873;BME280;55907;50.806;12.882;2023-02-21T05:12:44;973.1;;;9.8;75.1
68873;BME280;55907;50.806;12.882;2023-02-21T05:15:46;973.1;;;9.8;74.6
68873;BME280;55907;50.806;12.882;2023-02-21T05:18:47;973.0;;;9.7;74.7
68873;BME280;55907;50.806;12.882;2023-02-21T05:21:49;973.0;;;9.7;74.8
68873;BME280;55907;50.806;12.882;2023-02-21T05:24:50;973.0;;;9.7;75.0
68873;BME280;55907;50.806;12.882;2023-02-21T05:30:54;972.9;;;9.5;75.6
68873;BME280;55907;50.806;12.882;2023-02-21T05:33:55;972.9;;;9.5;75.9
68873;BME280;55907;50.806;12.882;2023-02-21T05:36:56;972.9;;;9.5;75.6
68873;BME280;55907;50.806;12.882;2023-02-21T05:39:58;972.9;;;9.6;75.4
68873;BME280;55907;50.806;12.882;2023-02-21T05:42:59;972.9;;;9.6;75.1
68873;BME280;55907;50.806;12.882;2023-02-21T05:49:03;972.8;;;9.4;75.7
68873;BME280;55907;50.806;12.882;2023-02-21T05:52:04;972.9;;;9.4;75.7
68873;BME280;55907;50.806;12.882;2023-02-21T05:55:05;972.9;;;9.4;75.8
68873;BME280;55907;50.806;12.882;2023-02-21T06:01:08;973.0;;;9.4;76.0
68873;BME280;55907;50.806;12.882;2023-02-21T06:04:10;973.0;;;9.4;75.6
68873;BME280;55907;50.806;12.882;2023-02-21T06:07:11;973.0;;;9.4;76.0
68873;BME280;55907;50.806;12.882;2023-02-21T06:10:13;973.0;;;9.3;76.1
68873;BME280;55907;50.806;12.882;2023-02-21T06:13:15;973.1;;;9.4;76.1
68873;BME280;55907;50.806;12.882;2023-02-21T06:16:16;973.0;;;9.4;75.9
68873;BME280;55907;50.806;12.882;2023-02-21T06:19:18;973.0;;;9.5;75.8
68873;BME280;55907;50.806;12.882;2023-02-21T06:22:19;973.0;;;9.6;75.7
68873;BME280;55907;50.806;12.882;2023-02-21T06:25:21;973.1;;;9.7;75.2
68873;BME280;55907;50.806;12.882;2023-02-21T06:28:26;973.2;;;9.8;75.0
68873;BME280;55907;50.806;12.882;2023-02-21T06:31:24;973.3;;;10.0;74.3
68873;BME280;55907;50.806;12.882;2023-02-21T06:34:26;973.4;;;9.9;74.2
68873;BME280;55907;50.806;12.882;2023-02-21T06:37:27;973.5;;;9.9;74.0
68873;BME280;55907;50.806;12.882;2023-02-21T06:40:28;973.6;;;9.9;74.0
68873;BME280;55907;50.806;12.882;2023-02-21T06:43:29;973.6;;;9.9;73.7
68873;BME280;55907;50.806;12.882;2023-02-21T06:46:31;973.7;;;9.9;73.9
68873;BME280;55907;50.806;12.882;2023-02-21T06:49:32;973.7;;;9.9;74.0
68873;BME280;55907;50.806;12.882;2023-02-21T06:52:34;973.7;;;9.8;74.2
68873;BME280;55907;50.806;12.882;2023-02-21T06:55:35;973.7;;;9.8;74.3
68873;BME280;55907;50.806;12.882;2023-02-21T06:58:37;973.8;;;9.7;74.8
68873;BME280;55907;50.806;12.882;2023-02-21T07:01:38;973.9;;;9.7;74.9
68873;BME280;55907;50.806;12.882;2023-02-21T07:04:40;973.9;;;9.7;75.0
68873;BME280;55907;50.806;12.882;2023-02-21T07:07:41;974.0;;;9.6;75.1
68873;BME280;55907;50.806;12.882;2023-02-21T07:10:43;973.9;;;9.7;75.0
68873;BME280;55907;50.806;12.882;2023-02-21T07:13:46;974.0;;;9.7;75.0
68873;BME280;55907;50.806;12.882;2023-02-21T07:16:46;974.1;;;9.6;75.3
68873;BME280;55907;50.806;12.882;2023-02-21T07:19:48;974.1;;;9.6;75.5
68873;BME280;55907;50.806;12.882;2023-02-21T07:22:49;974.0;;;9.6;75.5
68873;BME280;55907;50.806;12.882;2023-02-21T07:25:51;974.1;;;9.6;75.6
68873;BME280;55907;50.806;12.882;2023-02-21T07:28:52;974.1;;;9.7;75.6
68873;BME280;55907;50.806;12.882;2023-02-21T07:31:54;974.1;;;9.6;75.9
68873;BME280;55907;50.806;12.882;2023-02-21T07:34:55;974.2;;;9.6;76.1
68873;BME280;55907;50.806;12.882;2023-02-21T07:37:59;974.2;;;9.7;75.8
68873;BME280;55907;50.806;12.882;2023-02-21T07:41:01;974.2;;;9.6;76.5
68873;BME280;55907;50.806;12.882;2023-02-21T07:44:00;974.3;;;9.6;76.5
68873;BME280;55907;50.806;12.882;2023-02-21T07:47:01;974.3;;;9.6;76.6
68873;BME280;55907;50.806;12.882;2023-02-21T07:50:04;974.3;;;9.6;76.5
68873;BME280;55907;50.806;12.882;2023-02-21T07:53:04;974.4;;;9.6;76.6
68873;BME280;55907;50.806;12.882;2023-02-21T07:56:06;974.4;;;9.6;77.0
68873;BME280;55907;50.806;12.882;2023-02-21T07:59:07;974.4;;;9.6;77.5
68873;BME280;55907;50.806;12.882;2023-02-21T08:02:10;974.5;;;9.7;77.2
68873;BME280;55907;50.806;12.882;2023-02-21T08:05:10;974.5;;;9.7;76.9
68873;BME280;55907;50.806;12.882;2023-02-21T08:08:13;974.5;;;9.7;77.0
68873;BME280;55907;50.806;12.882;2023-02-21T08:11:13;974.6;;;9.7;77.2
68873;BME280;55907;50.806;12.882;2023-02-21T08:14:15;974.5;;;9.6;77.2
68873;BME280;55907;50.806;12.882;2023-02-21T08:17:16;974.6;;;9.6;77.8
68873;BME280;55907;50.806;12.882;2023-02-21T08:20:18;974.5;;;9.7;77.4
68873;BME280;55907;50.806;12.882;2023-02-21T08:23:20;974.6;;;9.7;77.4
68873;BME280;55907;50.806;12.882;2023-02-21T08:26:21;974.5;;;9.7;77.6
68873;BME280;55907;50.806;12.882;2023-02-21T08:29:22;974.5;;;9.8;77.3
68873;BME280;55907;50.806;12.882;2023-02-21T08:32:24;974.5;;;9.8;77.3
68873;BME280;55907;50.806;12.882;2023-02-21T08:35:25;974.5;;;9.9;77.2
68873;BME280;55907;50.806;12.882;2023-02-21T08:38:27;974.5;;;9.9;77.1
68873;BME280;55907;50.806;12.882;2023-02-21T08:41:33;974.5;;;9.9;76.6
68873;BME280;55907;50.806;12.882;2023-02-21T08:44:30;974.5;;;10.0;76.4
68873;BME280;55907;50.806;12.882;2023-02-21T08:47:34;974.5;;;10.0;76.2
68873;BME280;55907;50.806;12.882;2023-02-21T08:50:33;974.5;;;9.9;76.7
68873;BME280;55907;50.806;12.882;2023-02-21T08:53:34;974.5;;;10.0;76.3
68873;BME280;55907;50.806;12.882;2023-02-21T08:56:36;974.6;;;10.0;76.1
68873;BME280;55907;50.806;12.882;2023-02-21T08:59:39;974.5;;;10.1;75.8
68873;BME280;55907;50.806;12.882;2023-02-21T09:02:39;974.6;;;10.1;76.2
68873;BME280;55907;50.806;12.882;2023-02-21T09:05:40;974.5;;;10.1;75.7
68873;BME280;55907;50.806;12.882;2023-02-21T09:08:42;974.5;;;10.1;75.4
68873;BME280;55907;50.806;12.882;2023-02-21T09:11:43;974.5;;;10.1;75.7
68873;BME280;55907;50.806;12.882;2023-02-21T09:14:45;974.4;;;10.1;75.6
68873;BME280;55907;50.806;12.882;2023-02-21T09:17:46;974.5;;;10.1;75.6
68873;BME280;55907;50.806;12.882;2023-02-21T09:20:48;974.5;;;10.2;75.3
68873;BME280;55907;50.806;12.882;2023-02-21T09:23:52;974.5;;;10.2;75.1
68873;BME280;55907;50.806;12.882;2023-02-21T09:26:51;974.4;;;10.2;74.9
68873;BME280;55907;50.806;12.882;2023-02-21T09:29:52;974.4;;;10.2;75.3
68873;BME280;55907;50.806;12.882;2023-02-21T09:32:55;974.5;;;10.3;75.0
68873;BME280;55907;50.806;12.882;2023-02-21T09:35:55;974.4;;;10.4;74.2
68873;BME280;55907;50.806;12.882;2023-02-21T09:38:57;974.4;;;10.5;74.0
68873;BME280;55907;50.806;12.882;2023-02-21T09:41:58;974.4;;;10.5;74.1
68873;BME280;55907;50.806;12.882;2023-02-21T09:45:00;974.3;;;10.6;72.9
68873;BME280;55907;50.806;12.882;2023-02-21T09:48:05;974.4;;;10.7;72.9
68873;BME280;55907;50.806;12.882;2023-02-21T09:51:05;974.3;;;10.7;72.6
68873;BME280;55907;50.806;12.882;2023-02-21T09:57:11;974.4;;;10.7;72.5
68873;BME280;55907;50.806;12.882;2023-02-21T10:00:15;974.4;;;10.9;71.9
68873;BME280;55907;50.806;12.882;2023-02-21T10:03:23;974.4;;;11.2;71.1
68873;BME280;55907;50.806;12.882;2023-02-21T10:06:19;974.4;;;11.1;70.8
68873;BME280;55907;50.806;12.882;2023-02-21T10:09:20;974.3;;;11.2;70.5
68873;BME280;55907;50.806;12.882;2023-02-21T10:12:19;974.3;;;11.3;70.4
68873;BME280;55907;50.806;12.882;2023-02-21T10:15:24;974.4;;;11.2;70.4
68873;BME280;55907;50.806;12.882;2023-02-21T10:18:24;974.4;;;11.3;70.0
68873;BME280;55907;50.806;12.882;2023-02-21T10:21:23;974.5;;;11.3;70.0
68873;BME280;55907;50.806;12.882;2023-02-21T10:24:21;974.5;;;11.4;69.7
68873;BME280;55907;50.806;12.882;2023-02-21T10:30:26;974.6;;;11.5;69.3
68873;BME280;55907;50.806;12.882;2023-02-21T10:36:25;974.6;;;11.4;69.2
68873;BME280;55907;50.806;12.882;2023-02-21T10:39:30;974.6;;;11.3;69.4
68873;BME280;55907;50.806;12.882;2023-02-21T10:42:35;974.7;;;11.4;69.3
68873;BME280;55907;50.806;12.882;2023-02-21T10:45:34;974.6;;;11.5;69.2
68873;BME280;55907;50.806;12.882;2023-02-21T10:48:34;974.6;;;11.6;68.5
68873;BME280;55907;50.806;12.882;2023-02-21T10:51:33;974.6;;;11.6;68.2
68873;BME280;55907;50.806;12.882;2023-02-21T10:54:34;974.6;;;11.7;68.1
68873;BME280;55907;50.806;12.882;2023-02-21T10:57:40;974.6;;;11.8;67.4
68873;BME280;55907;50.806;12.882;2023-02-21T11:00:38;974.6;;;11.8;67.5
68873;BME280;55907;50.806;12.882;2023-02-21T11:03:42;974.6;;;11.7;67.7
68873;BME280;55907;50.806;12.882;2023-02-21T11:06:44;974.5;;;11.7;67.5
68873;BME280;55907;50.806;12.882;2023-02-21T11:12:42;974.6;;;11.8;66.8
68873;BME280;55907;50.806;12.882;2023-02-21T11:15:44;974.6;;;11.7;66.5
68873;BME280;55907;50.806;12.882;2023-02-21T11:18:45;974.4;;;11.6;66.6
68873;BME280;55907;50.806;12.882;2023-02-21T11:21:54;974.5;;;11.7;65.9
68873;BME280;55907;50.806;12.882;2023-02-21T11:24:53;974.5;;;11.9;65.8
68873;BME280;55907;50.806;12.882;2023-02-21T11:28:02;974.5;;;11.9;66.1
68873;BME280;55907;50.806;12.882;2023-02-21T11:31:04;974.5;;;11.9;66.2
68873;BME280;55907;50.806;12.882;2023-02-21T11:33:56;974.5;;;11.8;66.5
68873;BME280;55907;50.806;12.882;2023-02-21T11:37:01;974.5;;;11.9;66.3
68873;BME280;55907;50.806;12.882;2023-02-21T11:39:56;974.4;;;11.8;66.5
68873;BME280;55907;50.806;12.882;2023-02-21T11:43:11;974.4;;;11.8;66.8
68873;BME280;55907;50.806;12.882;2023-02-21T11:46:04;974.4;;;11.8;66.9
68873;BME280;55907;50.806;12.882;2023-02-21T11:49:04;974.3;;;11.8;67.2
68873;BME280;55907;50.806;12.882;2023-02-21T11:55:04;974.3;;;11.7;67.4
68873;BME280;55907;50.806;12.882;2023-02-21T11:58:13;974.3;;;11.7;67.3
68873;BME280;55907;50.806;12.882;2023-02-21T12:01:10;974.3;;;11.7;67.7
68873;BME280;55907;50.806;12.882;2023-02-21T12:04:17;974.3;;;11.8;67.5
68873;BME280;55907;50.806;12.882;2023-02-21T12:07:15;974.3;;;11.7;66.9
68873;BME280;55907;50.806;12.882;2023-02-21T12:10:26;974.3;;;11.7;66.7
68873;BME280;55907;50.806;12.882;2023-02-21T12:13:21;974.3;;;11.7;66.9
68873;BME280;55907;50.806;12.882;2023-02-21T12:16:26;974.2;;;11.7;67.0
68873;BME280;55907;50.806;12.882;2023-02-21T12:19:29;974.2;;;11.8;66.8
68873;BME280;55907;50.806;12.882;2023-02-21T12:22:22;974.1;;;11.7;67.1
68873;BME280;55907;50.806;12.882;2023-02-21T12:25:22;974.2;;;11.6;67.3
68873;BME280;55907;50.806;12.882;2023-02-21T12:28:23;974.1;;;11.7;67.5
68873;BME280;55907;50.806;12.882;2023-02-21T12:31:29;974.1;;;11.7;67.2
68873;BME280;55907;50.806;12.882;2023-02-21T12:34:35;974.1;;;11.6;67.4
68873;BME280;55907;50.806;12.882;2023-02-21T12:37:28;974.0;;;11.7;67.3
68873;BME280;55907;50.806;12.882;2023-02-21T12:40:31;974.1;;;11.7;67.1
68873;BME280;55907;50.806;12.882;2023-02-21T12:43:37;974.0;;;11.6;67.5
68873;BME280;55907;50.806;12.882;2023-02-21T12:46:32;974.0;;;11.7;67.4
68873;BME280;55907;50.806;12.882;2023-02-21T12:49:35;973.9;;;11.7;67.6
68873;BME280;55907;50.806;12.882;2023-02-21T12:52:35;973.9;;;11.7;67.7
68873;BME280;55907;50.806;12.882;2023-02-21T12:55:35;973.8;;;11.7;67.8
68873;BME280;55907;50.806;12.882;2023-02-21T12:58:37;973.8;;;11.7;67.7
68873;BME280;55907;50.806;12.882;2023-02-21T13:01:40;973.8;;;11.6;68.1
68873;BME280;55907;50.806;12.882;2023-02-21T13:04:45;973.7;;;11.6;68.4
68873;BME280;55907;50.806;12.882;2023-02-21T13:10:49;973.6;;;11.5;69.0
68873;BME280;55907;50.806;12.882;2023-02-21T13:13:41;973.7;;;11.4;69.7
68873;BME280;55907;50.806;12.882;2023-02-21T13:16:43;973.6;;;11.3;69.9
68873;BME280;55907;50.806;12.882;2023-02-21T13:19:47;973.6;;;11.4;69.8
68873;BME280;55907;50.806;12.882;2023-02-21T13:25:55;973.7;;;11.4;70.5
68873;BME280;55907;50.806;12.882;2023-02-21T13:28:55;973.6;;;11.4;70.3
68873;BME280;55907;50.806;12.882;2023-02-21T13:31:57;973.6;;;11.4;70.3
68873;BME280;55907;50.806;12.882;2023-02-21T13:34:55;973.7;;;11.5;70.4
68873;BME280;55907;50.806;12.882;2023-02-21T13:37:54;973.6;;;11.5;69.9
68873;BME280;55907;50.806;12.882;2023-02-21T13:41:03;973.6;;;11.6;69.3
68873;BME280;55907;50.806;12.882;2023-02-21T13:43:57;973.5;;;11.5;69.3
68873;BME280;55907;50.806;12.882;2023-02-21T13:47:05;973.5;;;11.5;68.9
68873;BME280;55907;50.806;12.882;2023-02-21T13:53:11;973.4;;;11.5;69.1
68873;BME280;55907;50.806;12.882;2023-02-21T13:56:14;973.5;;;11.6;68.7
68873;BME280;55907;50.806;12.882;2023-02-21T14:02:19;973.5;;;11.6;68.4
68873;BME280;55907;50.806;12.882;2023-02-21T14:05:07;973.5;;;11.6;68.4
68873;BME280;55907;50.806;12.882;2023-02-21T14:08:11;973.5;;;11.6;68.7
68873;BME280;55907;50.806;12.882;2023-02-21T14:11:13;973.5;;;11.7;68.6
68873;BME280;55907;50.806;12.882;2023-02-21T14:14:22;973.5;;;11.9;68.3
68873;BME280;55907;50.806;12.882;2023-02-21T14:17:13;973.6;;;11.8;68.7
68873;BME280;55907;50.806;12.882;2023-02-21T14:20:15;973.6;;;11.8;68.6
68873;BME280;55907;50.806;12.882;2023-02-21T14:23:16;973.5;;;11.7;69.1
68873;BME280;55907;50.806;12.882;2023-02-21T14:32:34;973.4;;;11.9;68.7
68873;BME280;55907;50.806;12.882;2023-02-21T14:33:35;unavailable;;;unavailable;unavailable
68873;BME280;55907;50.806;12.882;2023-02-21T14:35:25;973.4;;;11.9;68.6
68873;BME280;55907;50.806;12.882;2023-02-21T14:38:26;973.5;;;11.8;68.6
68873;BME280;55907;50.806;12.882;2023-02-21T14:44:31;973.5;;;11.7;68.5
68873;BME280;55907;50.806;12.882;2023-02-21T14:47:35;973.4;;;11.6;68.4
68873;BME280;55907;50.806;12.882;2023-02-21T14:50:35;973.4;;;11.6;68.4
68873;BME280;55907;50.806;12.882;2023-02-21T14:53:51;973.4;;;11.5;68.6
68873;BME280;55907;50.806;12.882;2023-02-21T14:56:39;973.4;;;11.5;68.7
68873;BME280;55907;50.806;12.882;2023-02-21T14:59:50;973.5;;;11.4;68.6
68873;BME280;55907;50.806;12.882;2023-02-21T15:02:40;973.5;;;11.5;68.0
68873;BME280;55907;50.806;12.882;2023-02-21T15:08:40;973.4;;;11.5;67.8
68873;BME280;55907;50.806;12.882;2023-02-21T15:11:40;973.4;;;11.5;67.9
68873;BME280;55907;50.806;12.882;2023-02-21T15:14:47;973.4;;;11.4;68.1
68873;BME280;55907;50.806;12.882;2023-02-21T15:17:42;973.4;;;11.4;67.9
68873;BME280;55907;50.806;12.882;2023-02-21T15:20:44;973.5;;;11.4;68.1
68873;BME280;55907;50.806;12.882;2023-02-21T15:23:47;973.4;;;11.4;67.6
68873;BME280;55907;50.806;12.882;2023-02-21T15:26:47;973.5;;;11.4;67.7
68873;BME280;55907;50.806;12.882;2023-02-21T15:30:03;973.4;;;11.4;67.9
68873;BME280;55907;50.806;12.882;2023-02-21T15:32:54;973.4;;;11.4;68.2
68873;BME280;55907;50.806;12.882;2023-02-21T15:35:52;973.5;;;11.4;68.1
68873;BME280;55907;50.806;12.882;2023-02-21T15:38:58;973.4;;;11.4;67.9
68873;BME280;55907;50.806;12.882;2023-02-21T15:41:54;973.4;;;11.4;67.8
68873;BME280;55907;50.806;12.882;2023-02-21T15:44:57;973.5;;;11.3;68.0
68873;BME280;55907;50.806;12.882;2023-02-21T15:47:58;973.4;;;11.3;68.1
68873;BME280;55907;50.806;12.882;2023-02-21T15:51:01;973.4;;;11.2;68.5
68873;BME280;55907;50.806;12.882;2023-02-21T15:54:19;973.4;;;11.2;68.4
68873;BME280;55907;50.806;12.882;2023-02-21T15:57:05;973.5;;;11.1;69.0
68873;BME280;55907;50.806;12.882;2023-02-21T16:00:17;973.5;;;11.1;68.4
68873;BME280;55907;50.806;12.882;2023-02-21T16:06:11;973.6;;;11.0;68.0
68873;BME280;55907;50.806;12.882;2023-02-21T16:09:19;973.6;;;11.1;68.0
68873;BME280;55907;50.806;12.882;2023-02-21T16:12:23;973.6;;;11.1;67.4
68873;BME280;55907;50.806;12.882;2023-02-21T16:15:21;973.6;;;11.1;67.3
68873;BME280;55907;50.806;12.882;2023-02-21T16:18:17;973.7;;;11.1;67.2
68873;BME280;55907;50.806;12.882;2023-02-21T16:21:21;973.7;;;11.0;67.0
68873;BME280;55907;50.806;12.882;2023-02-21T16:24:27;973.6;;;11.0;66.9
68873;BME280;55907;50.806;12.882;2023-02-21T16:27:17;973.6;;;11.0;66.8
68873;BME280;55907;50.806;12.882;2023-02-21T16:30:20;973.6;;;11.0;66.8